createdAt,value
2019-01-17T00:00:12.111Z,963.27
2019-01-17T00:01:12.335Z,963.31
2019-01-17T00:03:17.515Z,963.27
2019-01-17T00:04:17.749Z,963.26
2019-01-17T00:06:10.822Z,963.28
2019-01-17T00:07:11.055Z,963.33
2019-01-17T00:09:15.220Z,963.33
2019-01-17T00:10:15.452Z,963.36
2019-01-17T00:12:19.598Z,963.29
2019-01-17T00:13:19.827Z,963.20
2019-01-17T00:15:24.004Z,963.32
2019-01-17T00:16:24.236Z,963.32
2019-01-17T00:18:28.407Z,963.20
2019-01-17T00:19:28.639Z,963.27
2019-01-17T00:21:32.783Z,963.32
2019-01-17T00:22:33.015Z,963.31
2019-01-17T00:24:37.186Z,963.26
2019-01-17T00:25:37.416Z,963.17
2019-01-17T00:27:41.565Z,963.13
2019-01-17T00:28:41.798Z,963.21
2019-01-17T00:30:45.963Z,963.21
2019-01-17T00:31:46.194Z,963.19
2019-01-17T00:33:50.375Z,963.18
2019-01-17T00:34:50.601Z,962.98
2019-01-17T00:36:54.743Z,963.16
2019-01-17T00:37:54.977Z,963.15
2019-01-17T00:39:59.146Z,963.11
2019-01-17T00:40:59.377Z,963.07
2019-01-17T00:43:03.516Z,963.00
2019-01-17T00:44:03.751Z,962.93
2019-01-17T00:45:56.847Z,962.91
2019-01-17T00:46:57.080Z,963.03
2019-01-17T00:49:01.225Z,963.01
2019-01-17T00:50:01.454Z,963.11
2019-01-17T00:52:05.617Z,962.96
2019-01-17T00:53:05.849Z,962.98
2019-01-17T00:55:10.020Z,963.07
2019-01-17T00:56:10.253Z,963.01
2019-01-17T00:58:14.399Z,962.93
2019-01-17T00:59:14.628Z,962.95
2019-01-17T01:01:18.802Z,962.79
2019-01-17T01:02:19.028Z,962.95
2019-01-17T01:04:23.168Z,962.88
2019-01-17T01:05:23.403Z,962.85
2019-01-17T01:07:27.565Z,962.94
2019-01-17T01:08:27.801Z,963.01
2019-01-17T01:10:31.963Z,962.84
2019-01-17T01:11:32.196Z,962.81
2019-01-17T01:13:36.343Z,962.89
2019-01-17T01:14:36.576Z,962.77
2019-01-17T01:16:40.742Z,962.86
2019-01-17T01:17:40.976Z,962.90
2019-01-17T01:19:45.126Z,962.84
2019-01-17T01:20:45.356Z,962.95
2019-01-17T01:22:49.525Z,962.81
2019-01-17T01:23:49.750Z,962.94
2019-01-17T01:25:42.846Z,963.00
2019-01-17T01:26:43.079Z,962.95
2019-01-17T01:28:47.224Z,962.93
2019-01-17T01:29:47.456Z,962.73
2019-01-17T01:31:51.644Z,962.73
2019-01-17T01:32:51.852Z,962.83
2019-01-17T01:34:56.001Z,962.93
2019-01-17T01:35:56.234Z,962.96
2019-01-17T01:38:00.401Z,962.85
2019-01-17T01:39:00.630Z,962.85
2019-01-17T01:41:04.793Z,962.87
2019-01-17T01:42:05.030Z,962.82
2019-01-17T01:44:09.168Z,962.77
2019-01-17T01:45:09.398Z,962.88
2019-01-17T01:47:13.566Z,962.88
2019-01-17T01:48:13.795Z,962.79
2019-01-17T01:50:17.938Z,962.70
2019-01-17T01:51:18.173Z,962.84
2019-01-17T01:53:22.341Z,962.79
2019-01-17T01:54:22.578Z,962.90
2019-01-17T01:56:15.668Z,962.85
2019-01-17T01:57:15.901Z,962.88
2019-01-17T01:59:20.046Z,962.85
2019-01-17T02:00:20.277Z,962.80
2019-01-17T02:02:24.446Z,962.80
2019-01-17T02:03:24.677Z,962.76
2019-01-17T02:05:28.816Z,962.71
2019-01-17T02:06:29.047Z,962.89
2019-01-17T02:08:33.207Z,962.70
2019-01-17T02:09:33.445Z,962.70
2019-01-17T02:11:37.604Z,962.67
2019-01-17T02:12:37.843Z,962.63
2019-01-17T02:14:41.980Z,962.53
2019-01-17T02:15:42.212Z,962.64
2019-01-17T02:17:46.383Z,962.65
2019-01-17T02:18:46.616Z,962.80
2019-01-17T02:20:50.763Z,962.69
2019-01-17T02:21:50.993Z,962.82
2019-01-17T02:23:55.157Z,962.77
2019-01-17T02:24:55.393Z,962.73
2019-01-17T02:26:59.554Z,962.75
2019-01-17T02:27:59.772Z,962.80
2019-01-17T02:30:03.939Z,962.82
2019-01-17T02:31:04.171Z,962.82
2019-01-17T02:33:08.338Z,962.80
2019-01-17T02:34:08.570Z,962.74
2019-01-17T02:36:01.650Z,962.75
2019-01-17T02:37:01.884Z,962.70
2019-01-17T02:39:06.054Z,962.77
2019-01-17T02:40:06.289Z,962.75
2019-01-17T02:42:10.436Z,962.73
2019-01-17T02:43:10.669Z,962.81
2019-01-17T02:45:14.834Z,962.84
2019-01-17T02:46:15.064Z,962.81
2019-01-17T02:48:19.243Z,962.78
2019-01-17T02:49:19.477Z,962.71
2019-01-17T02:51:23.618Z,962.78
2019-01-17T02:52:23.854Z,962.78
2019-01-17T02:54:28.016Z,962.62
2019-01-17T02:55:28.246Z,962.66
2019-01-17T02:57:32.387Z,962.74
2019-01-17T02:58:32.626Z,962.66
2019-01-17T03:00:36.792Z,962.70
2019-01-17T03:01:37.026Z,962.68
2019-01-17T03:03:41.194Z,962.64
2019-01-17T03:04:41.426Z,962.76
2019-01-17T03:06:45.572Z,962.58
2019-01-17T03:07:45.804Z,962.68
2019-01-17T03:09:49.983Z,962.60
2019-01-17T03:10:50.211Z,962.73
2019-01-17T03:12:54.351Z,962.63
2019-01-17T03:13:54.583Z,962.70
2019-01-17T03:15:47.677Z,962.64
2019-01-17T03:16:47.906Z,962.78
2019-01-17T03:18:52.076Z,962.65
2019-01-17T03:19:52.309Z,962.65
2019-01-17T03:21:56.450Z,962.68
2019-01-17T03:22:56.687Z,962.64
2019-01-17T03:25:00.853Z,962.53
2019-01-17T03:26:01.082Z,962.33
2019-01-17T03:28:05.233Z,962.50
2019-01-17T03:29:05.469Z,962.38
2019-01-17T03:31:09.641Z,962.70
2019-01-17T03:32:09.883Z,962.38
2019-01-17T03:34:14.037Z,962.52
2019-01-17T03:35:14.272Z,962.48
2019-01-17T03:37:18.434Z,962.50
2019-01-17T03:38:18.653Z,962.51
2019-01-17T03:40:22.819Z,962.42
2019-01-17T03:41:23.053Z,962.33
2019-01-17T03:43:27.199Z,962.49
2019-01-17T03:44:27.433Z,962.47
2019-01-17T03:46:20.524Z,962.52
2019-01-17T03:47:20.759Z,962.59
2019-01-17T03:49:24.917Z,962.54
2019-01-17T03:50:25.151Z,962.49
2019-01-17T03:52:29.295Z,962.59
2019-01-17T03:53:29.527Z,962.56
2019-01-17T03:55:33.695Z,962.53
2019-01-17T03:56:33.938Z,962.58
2019-01-17T03:58:38.080Z,962.51
2019-01-17T03:59:38.310Z,962.44
2019-01-17T04:01:42.475Z,962.51
2019-01-17T04:02:42.711Z,962.55
2019-01-17T04:04:46.876Z,962.57
2019-01-17T04:05:47.110Z,962.65
2019-01-17T04:07:51.250Z,962.39
2019-01-17T04:08:51.484Z,962.54
2019-01-17T04:10:55.646Z,962.56
2019-01-17T04:11:55.884Z,962.49
2019-01-17T04:14:00.028Z,962.49
2019-01-17T04:15:00.261Z,962.58
2019-01-17T04:17:04.437Z,962.56
2019-01-17T04:18:04.663Z,962.52
2019-01-17T04:20:08.832Z,962.57
2019-01-17T04:21:09.066Z,962.52
2019-01-17T04:23:13.212Z,962.51
2019-01-17T04:24:13.448Z,962.52
2019-01-17T04:26:06.533Z,962.56
2019-01-17T04:27:06.766Z,962.54
2019-01-17T04:29:10.912Z,962.56
2019-01-17T04:30:11.144Z,962.50
2019-01-17T04:32:15.311Z,962.48
2019-01-17T04:33:15.545Z,962.55
2019-01-17T04:35:19.715Z,962.48
2019-01-17T04:36:19.944Z,962.54
2019-01-17T04:38:24.142Z,962.60
2019-01-17T04:39:24.363Z,962.53
2019-01-17T04:41:28.526Z,962.56
2019-01-17T04:42:28.759Z,962.51
2019-01-17T04:44:32.902Z,962.51
2019-01-17T04:45:33.132Z,962.56
2019-01-17T04:47:37.293Z,962.56
2019-01-17T04:48:37.528Z,962.55
2019-01-17T04:50:41.875Z,962.43
2019-01-17T04:51:41.882Z,962.38
2019-01-17T04:53:46.021Z,962.37
2019-01-17T04:54:46.258Z,962.37
2019-01-17T04:56:50.418Z,962.43
2019-01-17T04:57:50.652Z,962.45
2019-01-17T04:59:54.796Z,962.38
2019-01-17T05:00:55.030Z,962.44
2019-01-17T05:02:59.198Z,962.44
2019-01-17T05:03:59.434Z,962.41
2019-01-17T05:05:52.994Z,962.33
2019-01-17T05:06:53.359Z,962.44
2019-01-17T05:08:57.531Z,962.39
2019-01-17T05:09:57.764Z,962.39
2019-01-17T05:12:01.933Z,962.38
2019-01-17T05:13:02.167Z,962.40
2019-01-17T05:15:07.315Z,962.29
2019-01-17T05:16:07.551Z,962.38
2019-01-17T05:18:11.713Z,962.38
2019-01-17T05:19:11.945Z,962.35
2019-01-17T05:21:16.090Z,962.38
2019-01-17T05:22:16.314Z,962.42
2019-01-17T05:24:20.694Z,962.29
2019-01-17T05:25:20.690Z,962.34
2019-01-17T05:27:24.852Z,962.39
2019-01-17T05:28:25.083Z,962.35
2019-01-17T05:30:29.225Z,962.34
2019-01-17T05:31:29.458Z,962.33
2019-01-17T05:33:33.619Z,962.40
2019-01-17T05:34:39.363Z,962.38
2019-01-17T05:36:37.998Z,962.38
2019-01-17T05:37:38.310Z,962.33
2019-01-17T05:39:44.597Z,962.46
2019-01-17T05:40:42.813Z,962.37
2019-01-17T05:42:46.923Z,962.48
2019-01-17T05:43:47.155Z,962.45
2019-01-17T05:45:40.227Z,962.36
2019-01-17T05:46:40.461Z,962.34
2019-01-17T05:48:44.628Z,962.36
2019-01-17T05:49:44.861Z,962.40
2019-01-17T05:51:49.004Z,962.24
2019-01-17T05:52:49.241Z,962.45
2019-01-17T05:54:53.401Z,962.35
2019-01-17T05:55:53.635Z,962.32
2019-01-17T05:57:57.803Z,962.33
2019-01-17T05:58:58.040Z,962.27
2019-01-17T06:01:02.189Z,962.23
2019-01-17T06:02:02.415Z,962.34
2019-01-17T06:04:06.578Z,962.33
2019-01-17T06:05:06.813Z,962.42
2019-01-17T06:07:10.953Z,962.27
2019-01-17T06:08:11.185Z,962.33
2019-01-17T06:10:15.348Z,962.20
2019-01-17T06:11:15.583Z,962.21
2019-01-17T06:13:19.744Z,962.26
2019-01-17T06:14:19.977Z,962.24
2019-01-17T06:16:13.044Z,962.24
2019-01-17T06:17:13.276Z,962.30
2019-01-17T06:19:17.442Z,962.25
2019-01-17T06:20:17.675Z,962.27
2019-01-17T06:22:21.819Z,962.22
2019-01-17T06:23:22.046Z,962.23
2019-01-17T06:25:28.152Z,962.20
2019-01-17T06:26:26.437Z,962.25
2019-01-17T06:28:30.602Z,962.29
2019-01-17T06:29:30.836Z,962.23
2019-01-17T06:31:34.972Z,962.32
2019-01-17T06:32:35.206Z,962.34
2019-01-17T06:34:39.366Z,962.21
2019-01-17T06:35:39.598Z,962.20
2019-01-17T06:37:43.739Z,962.21
2019-01-17T06:38:43.973Z,962.21
2019-01-17T06:40:48.136Z,962.20
2019-01-17T06:41:48.370Z,962.21
2019-01-17T06:43:52.532Z,962.29
2019-01-17T06:44:52.767Z,962.27
2019-01-17T06:46:56.909Z,962.28
2019-01-17T06:47:57.143Z,962.35
2019-01-17T06:50:01.313Z,962.39
2019-01-17T06:51:01.547Z,962.41
2019-01-17T06:53:05.686Z,962.35
2019-01-17T06:54:05.920Z,962.40
2019-01-17T06:55:59.010Z,962.42
2019-01-17T06:56:59.241Z,962.30
2019-01-17T06:59:03.380Z,962.19
2019-01-17T07:00:03.615Z,962.29
2019-01-17T07:02:07.776Z,962.35
2019-01-17T07:03:08.010Z,962.28
2019-01-17T07:05:12.171Z,962.23
2019-01-17T07:06:12.407Z,962.30
2019-01-17T07:08:16.548Z,962.20
2019-01-17T07:09:16.784Z,962.15
2019-01-17T07:11:20.947Z,962.19
2019-01-17T07:12:21.180Z,962.23
2019-01-17T07:14:25.322Z,962.27
2019-01-17T07:15:25.557Z,962.16
2019-01-17T07:17:29.720Z,962.20
2019-01-17T07:18:29.952Z,962.18
2019-01-17T07:20:34.112Z,962.15
2019-01-17T07:21:34.345Z,962.18
2019-01-17T07:23:38.484Z,962.21
2019-01-17T07:24:38.717Z,962.24
2019-01-17T07:26:42.880Z,962.29
2019-01-17T07:27:43.117Z,962.20
2019-01-17T07:29:47.258Z,962.19
2019-01-17T07:30:47.489Z,962.16
2019-01-17T07:32:51.656Z,962.19
2019-01-17T07:33:51.888Z,962.19
2019-01-17T07:35:44.981Z,962.22
2019-01-17T07:36:45.218Z,962.22
2019-01-17T07:38:49.356Z,962.19
2019-01-17T07:39:49.591Z,962.22
2019-01-17T07:41:53.750Z,962.33
2019-01-17T07:42:53.984Z,962.35
2019-01-17T07:44:58.164Z,962.32
2019-01-17T07:45:58.356Z,962.33
2019-01-17T07:48:02.519Z,962.35
2019-01-17T07:49:02.753Z,962.31
2019-01-17T07:51:06.916Z,962.35
2019-01-17T07:52:07.150Z,962.37
2019-01-17T07:54:11.295Z,962.39
2019-01-17T07:55:11.527Z,962.39
2019-01-17T07:57:15.688Z,962.38
2019-01-17T07:58:15.922Z,962.33
2019-01-17T08:00:20.066Z,962.32
2019-01-17T08:01:20.301Z,962.35
2019-01-17T08:03:24.463Z,962.46
2019-01-17T08:04:24.697Z,962.40
2019-01-17T08:06:17.794Z,962.43
2019-01-17T08:07:18.026Z,962.37
2019-01-17T08:09:22.166Z,962.43
2019-01-17T08:10:22.398Z,962.45
2019-01-17T08:12:26.559Z,962.42
2019-01-17T08:13:26.793Z,962.41
2019-01-17T08:15:30.939Z,962.39
2019-01-17T08:16:31.173Z,962.47
2019-01-17T08:18:35.334Z,962.43
2019-01-17T08:19:35.568Z,962.47
2019-01-17T08:21:39.734Z,962.45
2019-01-17T08:22:39.966Z,962.47
2019-01-17T08:24:44.111Z,962.53
2019-01-17T08:25:44.347Z,962.54
2019-01-17T08:27:48.512Z,962.51
2019-01-17T08:28:48.747Z,962.43
2019-01-17T08:30:52.891Z,962.44
2019-01-17T08:31:53.125Z,962.38
2019-01-17T08:33:57.289Z,962.41
2019-01-17T08:34:57.522Z,962.29
2019-01-17T08:37:01.687Z,962.29
2019-01-17T08:38:01.926Z,962.24
2019-01-17T08:40:06.065Z,962.02
2019-01-17T08:41:06.301Z,962.04
2019-01-17T08:43:10.465Z,962.10
2019-01-17T08:44:10.699Z,962.18
2019-01-17T08:46:03.768Z,962.29
2019-01-17T08:47:04.003Z,962.31
2019-01-17T08:49:08.164Z,962.42
2019-01-17T08:50:08.398Z,962.42
2019-01-17T08:52:12.539Z,962.37
2019-01-17T08:53:12.775Z,962.41
2019-01-17T08:55:16.939Z,962.40
2019-01-17T08:56:17.171Z,962.42
2019-01-17T08:58:21.335Z,962.48
2019-01-17T08:59:21.567Z,962.55
2019-01-17T09:01:25.711Z,962.63
2019-01-17T09:02:25.946Z,962.49
2019-01-17T09:04:30.121Z,962.34
2019-01-17T09:05:30.351Z,962.18
2019-01-17T09:07:34.496Z,962.36
2019-01-17T09:08:34.730Z,962.44
2019-01-17T09:10:38.896Z,962.60
2019-01-17T09:11:39.132Z,962.63
2019-01-17T09:13:43.295Z,962.66
2019-01-17T09:14:43.530Z,962.65
2019-01-17T09:16:47.685Z,962.63
2019-01-17T09:17:47.918Z,962.58
2019-01-17T09:19:52.085Z,962.56
2019-01-17T09:20:52.320Z,962.63
2019-01-17T09:22:56.467Z,962.41
2019-01-17T09:23:56.699Z,962.45
2019-01-17T09:25:49.795Z,962.50
2019-01-17T09:26:50.027Z,962.44
2019-01-17T09:28:54.201Z,962.50
2019-01-17T09:29:54.437Z,962.43
2019-01-17T09:31:58.584Z,962.43
2019-01-17T09:32:58.820Z,962.40
2019-01-17T09:35:02.983Z,962.55
2019-01-17T09:36:03.222Z,962.58
2019-01-17T09:38:07.370Z,962.53
2019-01-17T09:39:07.609Z,962.52
2019-01-17T09:41:11.777Z,962.59
2019-01-17T09:42:12.014Z,962.52
2019-01-17T09:44:16.221Z,962.61
2019-01-17T09:45:16.415Z,962.61
2019-01-17T09:47:20.561Z,962.49
2019-01-17T09:48:20.799Z,962.58
2019-01-17T09:50:24.966Z,962.65
2019-01-17T09:51:25.197Z,962.68
2019-01-17T09:53:29.342Z,962.65
2019-01-17T09:54:29.579Z,962.65
2019-01-17T09:56:22.675Z,962.67
2019-01-17T09:57:22.909Z,962.72
2019-01-17T09:59:27.075Z,962.70
2019-01-17T10:00:27.309Z,962.76
2019-01-17T10:02:31.457Z,962.59
2019-01-17T10:03:31.692Z,962.75
2019-01-17T10:05:35.865Z,962.54
2019-01-17T10:06:36.100Z,962.71
2019-01-17T10:08:40.246Z,962.64
2019-01-17T10:09:40.482Z,962.70
2019-01-17T10:11:44.652Z,962.72
2019-01-17T10:12:44.890Z,962.75
2019-01-17T10:14:49.053Z,962.69
2019-01-17T10:15:49.296Z,962.68
2019-01-17T10:17:53.444Z,962.58
2019-01-17T10:18:53.680Z,962.52
2019-01-17T10:20:57.849Z,962.53
2019-01-17T10:21:58.085Z,962.43
2019-01-17T10:24:02.235Z,962.61
2019-01-17T10:25:02.470Z,962.53
2019-01-17T10:27:06.643Z,962.48
2019-01-17T10:28:06.879Z,962.51
2019-01-17T10:30:11.049Z,962.38
2019-01-17T10:31:11.284Z,962.42
2019-01-17T10:33:15.432Z,962.47
2019-01-17T10:34:15.668Z,962.51
2019-01-17T10:36:08.767Z,962.40
2019-01-17T10:37:09.004Z,962.44
2019-01-17T10:39:13.155Z,962.38
2019-01-17T10:40:13.395Z,962.38
2019-01-17T10:42:17.567Z,962.45
2019-01-17T10:43:17.801Z,962.47
2019-01-17T10:45:21.973Z,962.37
2019-01-17T10:46:22.205Z,962.41
2019-01-17T10:48:26.354Z,962.44
2019-01-17T10:49:26.596Z,962.34
2019-01-17T10:51:30.762Z,962.35
2019-01-17T10:52:30.995Z,962.43
2019-01-17T10:54:35.154Z,962.30
2019-01-17T10:55:35.390Z,962.34
2019-01-17T10:57:39.557Z,962.41
2019-01-17T10:58:39.792Z,962.25
2019-01-17T11:00:43.960Z,962.28
2019-01-17T11:01:44.206Z,962.28
2019-01-17T11:03:48.344Z,962.18
2019-01-17T11:04:48.581Z,962.21
2019-01-17T11:06:52.753Z,962.20
2019-01-17T11:07:52.987Z,962.20
2019-01-17T11:09:57.142Z,962.26
2019-01-17T11:10:57.379Z,962.26
2019-01-17T11:13:01.551Z,962.18
2019-01-17T11:14:01.788Z,962.30
2019-01-17T11:15:54.882Z,962.13
2019-01-17T11:16:55.113Z,962.08
2019-01-17T11:18:59.265Z,962.13
2019-01-17T11:19:59.502Z,961.96
2019-01-17T11:22:03.676Z,961.98
2019-01-17T11:23:03.912Z,962.18
2019-01-17T11:25:08.066Z,962.07
2019-01-17T11:26:08.304Z,962.09
2019-01-17T11:28:12.473Z,962.20
2019-01-17T11:29:12.710Z,962.33
2019-01-17T11:31:16.984Z,962.41
2019-01-17T11:32:17.217Z,963.04
2019-01-17T11:34:21.360Z,962.12
2019-01-17T11:35:21.592Z,962.71
2019-01-17T11:37:25.764Z,962.07
2019-01-17T11:38:26.009Z,962.09
2019-01-17T11:40:30.158Z,962.66
2019-01-17T11:41:30.400Z,962.60
2019-01-17T11:43:34.576Z,962.05
2019-01-17T11:44:34.818Z,961.93
2019-01-17T11:46:38.997Z,961.91
2019-01-17T11:47:39.240Z,961.89
2019-01-17T11:49:43.400Z,961.67
2019-01-17T11:50:43.640Z,961.81
2019-01-17T11:52:47.817Z,961.79
2019-01-17T11:53:48.055Z,961.59
2019-01-17T11:55:41.138Z,961.57
2019-01-17T11:56:41.382Z,961.64
2019-01-17T11:58:45.565Z,961.56
2019-01-17T11:59:45.801Z,961.45
2019-01-17T12:01:49.985Z,961.65
2019-01-17T12:02:50.260Z,961.53
2019-01-17T12:04:54.419Z,961.45
2019-01-17T12:05:54.655Z,961.30
2019-01-17T12:07:58.895Z,961.11
2019-01-17T12:08:59.132Z,961.38
2019-01-17T12:11:03.279Z,961.38
2019-01-17T12:12:03.521Z,961.80
2019-01-17T12:14:07.693Z,961.85
2019-01-17T12:15:07.927Z,961.98
2019-01-17T12:17:13.529Z,961.77
2019-01-17T12:18:12.387Z,961.88
2019-01-17T12:20:16.548Z,961.80
2019-01-17T12:21:16.790Z,961.62
2019-01-17T12:23:20.979Z,961.78
2019-01-17T12:24:21.225Z,961.76
2019-01-17T12:26:14.316Z,961.17
2019-01-17T12:27:14.563Z,961.37
2019-01-17T12:29:18.747Z,961.41
2019-01-17T12:30:18.991Z,961.12
2019-01-17T12:32:23.183Z,961.24
2019-01-17T12:33:23.430Z,961.17
2019-01-17T12:35:27.586Z,961.17
2019-01-17T12:36:27.823Z,961.02
2019-01-17T12:38:31.998Z,961.31
2019-01-17T12:39:32.253Z,961.09
2019-01-17T12:41:36.408Z,961.03
2019-01-17T12:42:36.649Z,960.96
2019-01-17T12:44:40.819Z,961.17
2019-01-17T12:45:41.057Z,960.83
2019-01-17T12:47:45.233Z,960.86
2019-01-17T12:48:45.473Z,961.17
2019-01-17T12:50:49.622Z,960.84
2019-01-17T12:51:49.861Z,960.75
2019-01-17T12:53:54.035Z,960.96
2019-01-17T12:54:54.274Z,960.99
2019-01-17T12:56:58.423Z,960.93
2019-01-17T12:57:58.663Z,961.11
2019-01-17T13:00:07.681Z,960.86
2019-01-17T13:01:03.081Z,960.87
2019-01-17T13:03:07.253Z,960.74
2019-01-17T13:04:07.494Z,960.77
2019-01-17T13:06:00.575Z,960.68
2019-01-17T13:07:00.820Z,960.62
2019-01-17T13:09:04.991Z,960.69
2019-01-17T13:10:05.228Z,960.96
2019-01-17T13:12:09.379Z,960.76
2019-01-17T13:13:09.616Z,960.65
2019-01-17T13:15:13.791Z,960.43
2019-01-17T13:16:14.031Z,960.60
2019-01-17T13:18:18.203Z,960.47
2019-01-17T13:19:18.444Z,960.31
2019-01-17T13:21:22.600Z,960.51
2019-01-17T13:22:22.839Z,960.41
2019-01-17T13:24:27.014Z,960.51
2019-01-17T13:25:27.254Z,960.57
2019-01-17T13:27:31.404Z,960.57
2019-01-17T13:28:31.643Z,960.54
2019-01-17T13:30:35.819Z,960.74
2019-01-17T13:31:36.061Z,960.28
2019-01-17T13:33:40.212Z,960.48
2019-01-17T13:34:40.454Z,960.53
2019-01-17T13:36:44.633Z,960.33
2019-01-17T13:37:44.869Z,960.42
2019-01-17T13:39:49.042Z,960.37
2019-01-17T13:40:49.281Z,960.42
2019-01-17T13:42:53.477Z,960.41
2019-01-17T13:43:53.710Z,960.38
2019-01-17T13:45:46.814Z,960.39
2019-01-17T13:46:47.059Z,960.62
2019-01-17T13:48:51.212Z,960.55
2019-01-17T13:49:51.450Z,960.51
2019-01-17T13:51:55.631Z,960.58
2019-01-17T13:52:55.869Z,960.69
2019-01-17T13:55:00.053Z,960.71
2019-01-17T13:56:00.285Z,960.47
2019-01-17T13:58:04.441Z,960.57
2019-01-17T13:59:04.681Z,960.61
2019-01-17T14:01:08.864Z,960.52
2019-01-17T14:02:09.110Z,960.61
2019-01-17T14:04:13.257Z,960.45
2019-01-17T14:05:13.498Z,960.51
2019-01-17T14:07:17.692Z,960.40
2019-01-17T14:08:17.925Z,960.48
2019-01-17T14:10:22.095Z,960.49
2019-01-17T14:11:22.335Z,960.48
2019-01-17T14:13:26.495Z,960.44
2019-01-17T14:14:26.733Z,960.60
2019-01-17T14:16:19.848Z,960.38
2019-01-17T14:17:20.076Z,960.51
2019-01-17T14:19:24.230Z,960.44
2019-01-17T14:20:24.468Z,960.44
2019-01-17T14:22:29.654Z,960.30
2019-01-17T14:23:29.889Z,960.20
2019-01-17T14:25:34.060Z,960.45
2019-01-17T14:26:34.300Z,960.28
2019-01-17T14:28:38.464Z,960.30
2019-01-17T14:29:38.703Z,960.31
2019-01-17T14:31:42.873Z,960.33
2019-01-17T14:32:43.108Z,960.23
2019-01-17T14:34:47.258Z,960.28
2019-01-17T14:35:47.497Z,960.30
2019-01-17T14:37:51.667Z,960.33
2019-01-17T14:38:51.905Z,960.07
2019-01-17T14:40:56.075Z,960.31
2019-01-17T14:41:56.313Z,960.29
2019-01-17T14:44:00.464Z,960.30
2019-01-17T14:45:00.709Z,960.40
2019-01-17T14:47:04.881Z,960.38
2019-01-17T14:48:05.118Z,960.35
2019-01-17T14:50:09.268Z,960.23
2019-01-17T14:51:09.501Z,960.21
2019-01-17T14:53:13.670Z,960.25
2019-01-17T14:54:13.905Z,960.32
2019-01-17T14:56:07.016Z,960.16
2019-01-17T14:57:07.251Z,960.29
2019-01-17T14:59:11.397Z,960.57
2019-01-17T15:00:11.632Z,960.20
2019-01-17T15:02:15.802Z,960.40
2019-01-17T15:03:16.042Z,960.24
2019-01-17T15:05:20.197Z,960.45
2019-01-17T15:06:20.434Z,960.32
2019-01-17T15:08:24.603Z,960.10
2019-01-17T15:09:24.842Z,960.26
2019-01-17T15:11:29.008Z,960.21
2019-01-17T15:12:29.242Z,960.47
2019-01-17T15:14:33.395Z,960.50
2019-01-17T15:15:33.631Z,960.20
2019-01-17T15:17:37.805Z,960.53
2019-01-17T15:18:38.040Z,960.31
2019-01-17T15:20:42.514Z,960.69
2019-01-17T15:21:42.462Z,960.43
2019-01-17T15:23:46.637Z,960.51
2019-01-17T15:24:46.877Z,960.24
2019-01-17T15:26:51.106Z,960.61
2019-01-17T15:27:51.343Z,960.88
2019-01-17T15:29:55.497Z,960.64
2019-01-17T15:30:55.726Z,960.92
2019-01-17T15:32:59.894Z,960.73
2019-01-17T15:34:00.129Z,960.76
2019-01-17T15:35:53.209Z,960.98
2019-01-17T15:36:53.447Z,960.65
2019-01-17T15:38:57.617Z,961.10
2019-01-17T15:39:57.854Z,960.91
2019-01-17T15:42:02.020Z,960.95
2019-01-17T15:43:02.256Z,961.00
2019-01-17T15:45:06.403Z,961.12
2019-01-17T15:46:06.640Z,960.95
2019-01-17T15:48:10.811Z,961.20
2019-01-17T15:49:11.045Z,961.16
2019-01-17T15:51:15.191Z,961.29
2019-01-17T15:52:15.432Z,961.37
2019-01-17T15:54:19.596Z,961.35
2019-01-17T15:55:19.828Z,961.43
2019-01-17T15:57:24.003Z,961.49
2019-01-17T15:58:24.238Z,961.38
2019-01-17T16:00:28.388Z,961.48
2019-01-17T16:01:28.610Z,961.75
2019-01-17T16:03:32.784Z,961.50
2019-01-17T16:04:33.022Z,961.60
2019-01-17T16:06:37.168Z,961.60
2019-01-17T16:07:37.404Z,961.68
2019-01-17T16:09:41.570Z,961.73
2019-01-17T16:10:41.810Z,961.72
2019-01-17T16:12:45.974Z,961.70
2019-01-17T16:13:46.210Z,961.84
2019-01-17T16:15:39.285Z,961.77
2019-01-17T16:16:39.521Z,961.79
2019-01-17T16:18:43.689Z,961.84
2019-01-17T16:19:43.929Z,961.92
2019-01-17T16:21:48.071Z,961.98
2019-01-17T16:22:48.309Z,961.91
2019-01-17T16:24:52.473Z,961.94
2019-01-17T16:25:52.712Z,962.02
2019-01-17T16:27:56.876Z,961.94
2019-01-17T16:28:57.162Z,961.91
2019-01-17T16:31:01.326Z,962.00
2019-01-17T16:32:01.566Z,962.09
2019-01-17T16:34:05.735Z,962.10
2019-01-17T16:35:05.971Z,962.16
2019-01-17T16:37:10.117Z,962.22
2019-01-17T16:38:10.350Z,962.24
2019-01-17T16:40:14.516Z,962.28
2019-01-17T16:41:14.748Z,962.30
2019-01-17T16:43:18.919Z,962.31
2019-01-17T16:44:19.156Z,962.41
2019-01-17T16:46:12.233Z,962.49
2019-01-17T16:47:12.464Z,962.52
2019-01-17T16:49:16.627Z,962.58
2019-01-17T16:50:16.861Z,962.62
2019-01-17T16:52:20.997Z,962.65
2019-01-17T16:53:21.230Z,962.59
2019-01-17T16:55:25.389Z,962.65
2019-01-17T16:56:25.624Z,962.74
2019-01-17T16:58:29.787Z,962.70
2019-01-17T16:59:30.027Z,962.75
2019-01-17T17:01:34.160Z,962.77
2019-01-17T17:02:34.393Z,962.81
2019-01-17T17:04:38.552Z,962.85
2019-01-17T17:05:38.787Z,962.92
2019-01-17T17:07:42.932Z,963.03
2019-01-17T17:08:43.166Z,963.08
2019-01-17T17:10:47.329Z,963.02
2019-01-17T17:11:47.563Z,963.08
2019-01-17T17:13:51.727Z,963.12
2019-01-17T17:14:51.962Z,963.18
2019-01-17T17:16:56.102Z,963.24
2019-01-17T17:17:56.337Z,963.18
2019-01-17T17:20:00.494Z,963.27
2019-01-17T17:21:00.727Z,963.23
2019-01-17T17:23:04.872Z,963.41
2019-01-17T17:24:05.099Z,963.44
2019-01-17T17:25:58.191Z,963.48
2019-01-17T17:26:58.428Z,963.50
2019-01-17T17:29:02.587Z,963.61
2019-01-17T17:30:02.820Z,963.57
2019-01-17T17:32:06.960Z,963.62
2019-01-17T17:33:07.196Z,963.62
2019-01-17T17:35:11.367Z,963.67
2019-01-17T17:36:11.604Z,963.75
2019-01-17T17:38:15.750Z,963.71
2019-01-17T17:39:15.988Z,963.66
2019-01-17T17:41:20.149Z,963.68
2019-01-17T17:42:20.385Z,963.68
2019-01-17T17:44:24.594Z,963.80
2019-01-17T17:45:24.833Z,963.81
2019-01-17T17:47:28.968Z,963.79
2019-01-17T17:48:29.199Z,963.85
2019-01-17T17:50:33.360Z,963.96
2019-01-17T17:51:33.594Z,963.99
2019-01-17T17:53:37.738Z,964.13
2019-01-17T17:54:37.970Z,964.13
2019-01-17T17:56:42.128Z,964.20
2019-01-17T17:57:42.363Z,964.23
2019-01-17T17:59:46.520Z,964.29
2019-01-17T18:00:46.752Z,964.22
2019-01-17T18:02:50.888Z,964.23
2019-01-17T18:03:51.122Z,964.32
2019-01-17T18:05:44.219Z,964.36
2019-01-17T18:06:44.453Z,964.32
2019-01-17T18:08:48.597Z,964.33
2019-01-17T18:09:48.830Z,964.38
2019-01-17T18:11:52.992Z,964.37
2019-01-17T18:12:53.226Z,964.33
2019-01-17T18:14:57.368Z,964.42
2019-01-17T18:15:57.608Z,964.36
2019-01-17T18:18:01.765Z,964.47
2019-01-17T18:19:02.000Z,964.42
2019-01-17T18:21:06.160Z,964.57
2019-01-17T18:22:06.393Z,964.52
2019-01-17T18:24:10.534Z,964.52
2019-01-17T18:25:10.769Z,964.61
2019-01-17T18:27:14.940Z,964.65
2019-01-17T18:28:15.171Z,964.61
2019-01-17T18:30:19.311Z,964.64
2019-01-17T18:31:19.552Z,964.69
2019-01-17T18:33:23.707Z,964.82
2019-01-17T18:34:23.940Z,964.74
2019-01-17T18:36:17.030Z,964.71
2019-01-17T18:37:17.259Z,964.80
2019-01-17T18:39:21.398Z,964.85
2019-01-17T18:40:21.634Z,964.93
2019-01-17T18:42:25.791Z,964.95
2019-01-17T18:43:26.024Z,964.96
2019-01-17T18:45:30.199Z,964.94
2019-01-17T18:46:30.431Z,965.02
2019-01-17T18:48:34.589Z,964.98
2019-01-17T18:49:34.820Z,965.01
2019-01-17T18:51:38.986Z,965.01
2019-01-17T18:52:39.221Z,965.04
2019-01-17T18:54:43.357Z,965.14
2019-01-17T18:55:43.681Z,965.14
2019-01-17T18:57:47.844Z,965.20
2019-01-17T18:58:48.079Z,965.22
2019-01-17T19:00:52.219Z,965.32
2019-01-17T19:01:52.461Z,965.29
2019-01-17T19:03:56.621Z,965.29